createdAt,value
2019-05-29T00:00:18.986Z,61.75
2019-05-29T00:01:54.216Z,61.75
2019-05-29T00:03:28.956Z,61.86
2019-05-29T00:05:04.457Z,61.94
2019-05-29T00:06:39.163Z,61.94
2019-05-29T00:08:14.759Z,61.88
2019-05-29T00:09:50.731Z,61.80
2019-05-29T00:11:25.963Z,61.80
2019-05-29T00:13:02.240Z,62.18
2019-05-29T00:14:37.488Z,62.46
2019-05-29T00:16:12.475Z,62.25
2019-05-29T00:17:47.835Z,62.60
2019-05-29T00:19:22.505Z,62.12
2019-05-29T00:20:57.729Z,62.35
2019-05-29T00:22:32.391Z,62.37
2019-05-29T00:24:08.696Z,62.79
2019-05-29T00:25:43.419Z,62.79
2019-05-29T00:27:18.664Z,62.96
2019-05-29T00:28:53.307Z,62.49
2019-05-29T00:30:28.536Z,63.54
2019-05-29T00:32:03.389Z,63.54
2019-05-29T00:33:38.930Z,63.03
2019-05-29T00:35:14.308Z,62.76
2019-05-29T00:36:49.793Z,63.00
2019-05-29T00:38:24.517Z,62.93
2019-05-29T00:39:59.769Z,62.93
2019-05-29T00:41:37.494Z,63.29
2019-05-29T00:43:13.771Z,63.29
2019-05-29T00:44:48.496Z,63.09
2019-05-29T00:46:23.740Z,63.09
2019-05-29T00:47:58.438Z,63.28
2019-05-29T00:49:33.758Z,63.76
2019-05-29T00:51:08.892Z,63.76
2019-05-29T00:52:44.369Z,63.81
2019-05-29T00:54:19.106Z,63.81
2019-05-29T00:55:54.338Z,63.80
2019-05-29T00:57:29.014Z,64.34
2019-05-29T00:59:04.244Z,63.73
2019-05-29T01:00:38.970Z,63.73
2019-05-29T01:02:15.733Z,64.13
2019-05-29T01:03:51.064Z,64.04
2019-05-29T01:05:26.321Z,64.19
2019-05-29T01:07:00.964Z,63.86
2019-05-29T01:08:36.172Z,63.97
2019-05-29T01:10:13.141Z,63.97
2019-05-29T01:11:48.426Z,63.93
2019-05-29T01:13:23.075Z,64.34
2019-05-29T01:14:58.306Z,64.79
2019-05-29T01:16:32.947Z,64.79
2019-05-29T01:18:08.201Z,65.38
2019-05-29T01:19:42.843Z,66.02
2019-05-29T01:21:18.160Z,65.20
2019-05-29T01:22:52.818Z,65.63
2019-05-29T01:24:28.178Z,66.11
2019-05-29T01:26:02.810Z,66.11
2019-05-29T01:27:38.036Z,66.06
2019-05-29T01:29:12.983Z,66.33
2019-05-29T01:30:51.413Z,66.65
2019-05-29T01:32:24.679Z,66.66
2019-05-29T01:33:59.888Z,66.66
2019-05-29T01:35:34.517Z,66.61
2019-05-29T01:37:10.433Z,67.22
2019-05-29T01:38:45.077Z,67.97
2019-05-29T01:40:25.126Z,67.97
2019-05-29T01:41:56.740Z,68.37
2019-05-29T01:43:31.975Z,68.24
2019-05-29T01:45:08.458Z,68.61
2019-05-29T01:46:43.932Z,68.64
2019-05-29T01:48:19.552Z,68.64
2019-05-29T01:49:54.973Z,68.68
2019-05-29T01:51:29.599Z,68.94
2019-05-29T01:53:04.808Z,69.41
2019-05-29T01:54:39.499Z,70.47
2019-05-29T01:56:15.547Z,70.20
2019-05-29T01:57:50.255Z,70.39
2019-05-29T01:59:25.503Z,70.32
2019-05-29T02:01:00.144Z,70.51
2019-05-29T02:02:35.398Z,71.04
2019-05-29T02:04:10.037Z,70.61
2019-05-29T02:05:45.266Z,70.87
2019-05-29T02:07:20.053Z,71.16
2019-05-29T02:08:55.220Z,71.29
2019-05-29T02:10:29.878Z,71.17
2019-05-29T02:12:05.166Z,71.34
2019-05-29T02:13:39.780Z,71.52
2019-05-29T02:15:26.008Z,72.00
2019-05-29T02:16:51.906Z,72.36
2019-05-29T02:18:27.126Z,72.64
2019-05-29T02:20:01.868Z,72.20
2019-05-29T02:21:37.069Z,72.22
2019-05-29T02:23:11.706Z,72.80
2019-05-29T02:24:46.932Z,72.84
2019-05-29T02:26:22.422Z,72.61
2019-05-29T02:27:57.859Z,72.82
2019-05-29T02:29:32.519Z,73.02
2019-05-29T02:31:07.758Z,73.26
2019-05-29T02:32:42.370Z,73.14
2019-05-29T02:34:17.688Z,73.49
2019-05-29T02:35:52.342Z,74.02
2019-05-29T02:37:28.883Z,73.66
2019-05-29T02:39:05.664Z,73.26
2019-05-29T02:40:41.002Z,73.67
2019-05-29T02:42:15.644Z,73.86
2019-05-29T02:43:50.860Z,73.75
2019-05-29T02:45:49.298Z,73.81
2019-05-29T02:47:02.439Z,74.58
2019-05-29T02:48:37.150Z,75.15
2019-05-29T02:50:12.450Z,75.48
2019-05-29T02:51:47.109Z,75.92
2019-05-29T02:53:22.403Z,75.98
2019-05-29T02:54:57.042Z,76.14
2019-05-29T02:56:32.427Z,76.52
2019-05-29T02:58:07.058Z,76.64
2019-05-29T02:59:42.281Z,76.70
2019-05-29T03:01:17.001Z,76.57
2019-05-29T03:02:52.234Z,76.68
2019-05-29T03:04:28.184Z,76.98
2019-05-29T03:06:04.334Z,76.85
2019-05-29T03:07:39.346Z,77.03
2019-05-29T03:09:14.656Z,77.01
2019-05-29T03:10:49.483Z,77.45
2019-05-29T03:12:25.077Z,76.95
2019-05-29T03:13:59.821Z,77.25
2019-05-29T03:15:35.109Z,77.62
2019-05-29T03:17:09.761Z,77.29
2019-05-29T03:18:45.954Z,76.61
2019-05-29T03:20:20.598Z,76.90
2019-05-29T03:21:55.829Z,77.12
2019-05-29T03:23:30.974Z,76.88
2019-05-29T03:25:07.876Z,77.39
2019-05-29T03:26:43.625Z,77.33
2019-05-29T03:28:18.850Z,77.50
2019-05-29T03:29:53.483Z,77.26
2019-05-29T03:31:36.846Z,76.93
2019-05-29T03:33:05.130Z,77.54
2019-05-29T03:34:46.329Z,76.49
2019-05-29T03:36:17.022Z,76.67
2019-05-29T03:37:52.191Z,76.92
2019-05-29T03:39:28.045Z,76.82
2019-05-29T03:41:03.363Z,76.75
2019-05-29T03:42:39.023Z,76.64
2019-05-29T03:44:14.482Z,77.08
2019-05-29T03:45:49.216Z,76.98
2019-05-29T03:47:24.446Z,77.39
2019-05-29T03:48:59.088Z,77.13
2019-05-29T03:50:34.884Z,76.62
2019-05-29T03:52:09.822Z,76.47
2019-05-29T03:53:45.157Z,76.07
2019-05-29T03:55:19.799Z,76.05
2019-05-29T03:56:55.039Z,76.36
2019-05-29T03:58:30.985Z,76.11
2019-05-29T04:00:08.114Z,76.26
2019-05-29T04:01:42.748Z,76.24
2019-05-29T04:03:18.057Z,75.82
2019-05-29T04:04:52.796Z,75.70
2019-05-29T04:06:29.065Z,75.15
2019-05-29T04:08:03.948Z,75.31
2019-05-29T04:09:39.179Z,75.09
2019-05-29T04:11:13.859Z,75.12
2019-05-29T04:12:49.078Z,74.45
2019-05-29T04:14:23.701Z,74.39
2019-05-29T04:16:02.318Z,74.18
2019-05-29T04:17:38.035Z,74.33
2019-05-29T04:19:13.681Z,74.22
2019-05-29T04:20:49.627Z,74.86
2019-05-29T04:22:30.208Z,74.27
2019-05-29T04:24:06.919Z,74.44
2019-05-29T04:25:43.462Z,73.88
2019-05-29T04:27:19.012Z,74.19
2019-05-29T04:28:54.708Z,73.38
2019-05-29T04:30:30.002Z,72.82
2019-05-29T04:32:06.589Z,72.40
2019-05-29T04:33:41.239Z,71.16
2019-05-29T04:35:17.495Z,71.90
2019-05-29T04:36:52.153Z,71.29
2019-05-29T04:38:28.655Z,70.37
2019-05-29T04:40:04.551Z,69.61
2019-05-29T04:41:39.775Z,67.74
2019-05-29T04:43:14.415Z,62.50
2019-05-29T04:44:49.667Z,59.35
2019-05-29T04:46:24.315Z,58.74
2019-05-29T04:47:59.582Z,62.81
2019-05-29T04:49:39.782Z,62.42
2019-05-29T04:51:14.887Z,57.59
2019-05-29T04:52:50.375Z,49.26
2019-05-29T04:54:25.649Z,41.40
2019-05-29T04:56:00.300Z,41.40
2019-05-29T04:57:35.536Z,37.00
2019-05-29T04:59:10.207Z,30.69
2019-05-29T05:00:58.699Z,30.69
2019-05-29T05:02:21.839Z,31.84
2019-05-29T05:03:57.063Z,32.56
2019-05-29T05:05:31.729Z,29.00
2019-05-29T05:07:06.952Z,29.75
2019-05-29T05:08:41.600Z,29.65
2019-05-29T05:10:33.395Z,31.01
2019-05-29T05:12:09.549Z,29.80
2019-05-29T05:13:44.285Z,27.87
2019-05-29T05:15:19.618Z,28.26
2019-05-29T05:16:55.101Z,29.46
2019-05-29T05:18:30.336Z,27.19
2019-05-29T05:20:05.759Z,24.93
2019-05-29T05:21:40.990Z,27.72
2019-05-29T05:23:15.689Z,27.17
2019-05-29T05:24:50.914Z,25.61
2019-05-29T05:26:25.537Z,23.66
2019-05-29T05:28:00.846Z,22.72
2019-05-29T05:29:36.538Z,22.09
2019-05-29T05:31:11.853Z,22.60
2019-05-29T05:32:46.487Z,25.13
2019-05-29T05:34:21.724Z,24.93
2019-05-29T05:35:57.449Z,25.95
2019-05-29T05:37:32.738Z,23.13
2019-05-29T05:39:07.875Z,25.75
2019-05-29T05:40:43.393Z,24.20
2019-05-29T05:42:18.188Z,23.77
2019-05-29T05:43:53.401Z,22.94
2019-05-29T05:45:28.156Z,25.35
2019-05-29T05:47:03.424Z,23.74
2019-05-29T05:48:39.178Z,24.69
2019-05-29T05:50:14.865Z,22.85
2019-05-29T05:51:49.508Z,20.75
2019-05-29T05:53:24.798Z,22.36
2019-05-29T05:54:59.387Z,22.19
2019-05-29T05:56:35.635Z,22.64
2019-05-29T05:58:10.438Z,21.78
2019-05-29T05:59:45.718Z,22.97
2019-05-29T06:01:20.392Z,22.03
2019-05-29T06:02:55.611Z,22.01
2019-05-29T06:04:30.646Z,19.87
2019-05-29T06:06:06.991Z,19.94
2019-05-29T06:07:42.477Z,18.08
2019-05-29T06:09:17.950Z,21.32
2019-05-29T06:10:52.572Z,20.36
2019-05-29T06:12:27.802Z,18.84
2019-05-29T06:14:02.482Z,17.17
2019-05-29T06:15:38.468Z,19.58
2019-05-29T06:17:13.150Z,20.58
2019-05-29T06:18:48.347Z,19.24
2019-05-29T06:20:23.002Z,18.24
2019-05-29T06:21:58.213Z,18.88
2019-05-29T06:23:32.871Z,18.93
2019-05-29T06:25:08.639Z,17.13
2019-05-29T06:26:43.343Z,17.83
2019-05-29T06:28:19.186Z,19.38
2019-05-29T06:29:55.163Z,17.16
2019-05-29T06:31:33.401Z,18.83
2019-05-29T06:33:09.519Z,19.31
2019-05-29T06:34:44.925Z,17.30
2019-05-29T06:36:19.552Z,15.84
2019-05-29T06:37:54.765Z,16.97
2019-05-29T06:39:29.421Z,22.15
2019-05-29T06:41:25.594Z,23.01
2019-05-29T06:43:00.903Z,17.21
2019-05-29T06:44:36.622Z,17.18
2019-05-29T06:46:13.592Z,17.35
2019-05-29T06:47:48.223Z,20.78
2019-05-29T06:49:23.427Z,28.16
2019-05-29T06:50:58.398Z,34.67
2019-05-29T06:52:33.604Z,33.42
2019-05-29T06:54:08.667Z,23.47
2019-05-29T06:55:44.092Z,32.56
2019-05-29T06:57:19.813Z,36.91
2019-05-29T06:58:55.048Z,37.51
2019-05-29T07:00:35.263Z,39.18
2019-05-29T07:02:06.873Z,41.77
2019-05-29T07:03:41.848Z,38.82
2019-05-29T07:05:17.126Z,27.09
2019-05-29T07:06:51.764Z,18.57
2019-05-29T07:08:39.008Z,19.31
2019-05-29T07:10:06.622Z,30.73
2019-05-29T07:11:41.887Z,34.65
2019-05-29T07:13:17.465Z,20.56
2019-05-29T07:14:52.698Z,17.69
2019-05-29T07:16:43.199Z,19.21
2019-05-29T07:18:04.589Z,27.53
2019-05-29T07:19:54.158Z,36.74
2019-05-29T07:21:16.144Z,36.87
2019-05-29T07:22:50.796Z,32.83
2019-05-29T07:24:26.012Z,18.49
2019-05-29T07:26:00.733Z,18.71
2019-05-29T07:27:36.840Z,20.25
2019-05-29T07:29:11.924Z,15.59
2019-05-29T07:30:53.817Z,29.24
2019-05-29T07:32:23.661Z,22.99
2019-05-29T07:33:58.870Z,22.94
2019-05-29T07:35:33.502Z,17.72
2019-05-29T07:37:08.729Z,28.10
2019-05-29T07:38:48.902Z,21.96
2019-05-29T07:40:20.338Z,22.72
2019-05-29T07:41:55.078Z,30.72
2019-05-29T07:43:30.287Z,31.59
2019-05-29T07:45:05.457Z,32.45
2019-05-29T07:46:42.284Z,34.19
2019-05-29T07:48:17.332Z,22.89
2019-05-29T07:49:52.576Z,24.71
2019-05-29T07:51:27.265Z,23.23
2019-05-29T07:53:02.542Z,33.04
2019-05-29T07:54:37.271Z,32.74
2019-05-29T07:56:22.197Z,29.33
2019-05-29T07:57:49.084Z,22.67
2019-05-29T07:59:28.560Z,25.21
2019-05-29T08:01:12.789Z,30.21
2019-05-29T08:02:39.397Z,33.57
2019-05-29T08:04:14.158Z,32.68
2019-05-29T08:05:52.736Z,22.48
2019-05-29T08:07:25.834Z,21.17
2019-05-29T08:09:01.120Z,23.37
2019-05-29T08:10:37.219Z,33.15
2019-05-29T08:12:12.540Z,18.87
2019-05-29T08:13:48.256Z,22.78
2019-05-29T08:15:23.488Z,32.76
2019-05-29T08:16:58.259Z,36.40
2019-05-29T08:18:33.492Z,37.12
2019-05-29T08:20:08.510Z,32.52
2019-05-29T08:21:44.292Z,25.64
2019-05-29T08:23:18.993Z,20.27
2019-05-29T08:24:54.530Z,29.73
2019-05-29T08:26:29.282Z,31.25
2019-05-29T08:28:04.590Z,22.10
2019-05-29T08:29:40.521Z,25.12
2019-05-29T08:31:15.844Z,28.62
2019-05-29T08:32:51.285Z,33.56
2019-05-29T08:34:26.630Z,33.17
2019-05-29T08:36:01.310Z,33.72
2019-05-29T08:37:36.565Z,35.94
2019-05-29T08:39:11.258Z,36.62
2019-05-29T08:40:47.394Z,35.81
2019-05-29T08:42:23.745Z,33.52
2019-05-29T08:43:59.228Z,33.71
2019-05-29T08:45:33.994Z,37.21
2019-05-29T08:47:10.904Z,36.70
2019-05-29T08:48:45.937Z,38.54
2019-05-29T08:50:21.267Z,39.23
2019-05-29T08:52:10.539Z,37.45
2019-05-29T08:53:32.822Z,37.88
2019-05-29T08:55:07.848Z,34.27
2019-05-29T08:56:44.282Z,35.28
2019-05-29T08:58:19.097Z,36.59
2019-05-29T08:59:54.384Z,37.06
2019-05-29T09:01:29.071Z,37.74
2019-05-29T09:03:04.377Z,37.45
2019-05-29T09:04:39.021Z,37.48
2019-05-29T09:06:14.377Z,37.99
2019-05-29T09:07:50.023Z,38.05
2019-05-29T09:09:25.991Z,37.51
2019-05-29T09:11:00.623Z,34.14
2019-05-29T09:12:36.012Z,35.95
2019-05-29T09:14:10.659Z,35.53
2019-05-29T09:15:45.936Z,37.79
2019-05-29T09:17:20.589Z,37.86
2019-05-29T09:18:55.877Z,38.25
2019-05-29T09:20:50.210Z,35.30
2019-05-29T09:22:08.422Z,31.64
2019-05-29T09:23:43.072Z,34.02
2019-05-29T09:25:19.549Z,32.88
2019-05-29T09:26:54.190Z,33.00
2019-05-29T09:28:28.132Z,33.30
2019-05-29T09:30:02.881Z,32.95
2019-05-29T09:31:38.585Z,33.41
2019-05-29T09:33:15.229Z,31.17
2019-05-29T09:34:50.454Z,34.27
2019-05-29T09:36:25.201Z,33.25
2019-05-29T09:38:00.592Z,31.09
2019-05-29T09:39:36.295Z,30.47
2019-05-29T09:41:11.593Z,30.82
2019-05-29T09:42:46.358Z,31.12
2019-05-29T09:44:36.041Z,29.27
2019-05-29T09:46:01.896Z,27.63
2019-05-29T09:47:34.942Z,30.00
2019-05-29T09:49:09.591Z,30.19
2019-05-29T09:50:49.906Z,32.35
2019-05-29T09:52:21.208Z,32.50
2019-05-29T09:53:58.215Z,32.38
2019-05-29T09:55:32.795Z,31.95
2019-05-29T09:57:07.995Z,33.41
2019-05-29T09:58:50.779Z,33.85
2019-05-29T10:00:26.616Z,34.50
2019-05-29T10:02:06.962Z,34.67
2019-05-29T10:03:38.205Z,33.39
2019-05-29T10:05:13.324Z,32.03
2019-05-29T10:06:48.911Z,32.51
2019-05-29T10:08:23.564Z,32.44
2019-05-29T10:10:00.536Z,30.28
2019-05-29T10:11:36.625Z,32.42
2019-05-29T10:13:11.923Z,30.95
2019-05-29T10:14:46.619Z,30.76
2019-05-29T10:16:22.883Z,30.64
2019-05-29T10:17:58.529Z,33.47
2019-05-29T10:19:33.836Z,32.16
2019-05-29T10:21:08.530Z,33.23
2019-05-29T10:22:43.742Z,30.27
2019-05-29T10:24:18.381Z,32.46
2019-05-29T10:25:53.623Z,31.95
2019-05-29T10:27:28.287Z,31.81
2019-05-29T10:29:08.697Z,30.93
2019-05-29T10:30:39.956Z,31.23
2019-05-29T10:32:15.286Z,33.64
2019-05-29T10:33:50.297Z,33.63
2019-05-29T10:35:25.579Z,35.55
2019-05-29T10:37:01.394Z,34.51
2019-05-29T10:38:36.635Z,34.19
2019-05-29T10:40:11.540Z,35.14
2019-05-29T10:41:46.807Z,31.45
2019-05-29T10:43:33.721Z,31.34
2019-05-29T10:44:58.440Z,32.56
2019-05-29T10:46:33.090Z,32.50
2019-05-29T10:48:08.496Z,33.52
2019-05-29T10:49:48.272Z,33.66
2019-05-29T10:51:23.534Z,33.50
2019-05-29T10:52:58.204Z,34.59
2019-05-29T10:54:33.415Z,35.09
2019-05-29T10:56:08.120Z,35.60
2019-05-29T10:57:44.633Z,35.39
2019-05-29T10:59:19.483Z,35.44
2019-05-29T11:00:55.590Z,34.91
2019-05-29T11:02:30.348Z,36.65
2019-05-29T11:04:05.694Z,35.90
2019-05-29T11:05:40.332Z,35.87
2019-05-29T11:07:15.529Z,34.82
2019-05-29T11:08:50.249Z,35.83
2019-05-29T11:10:25.516Z,36.38
2019-05-29T11:12:00.187Z,36.34
2019-05-29T11:13:35.492Z,35.69
2019-05-29T11:15:20.664Z,34.52
2019-05-29T11:16:47.321Z,34.39
2019-05-29T11:18:22.039Z,34.67
2019-05-29T11:19:58.250Z,35.40
2019-05-29T11:21:33.093Z,35.08
2019-05-29T11:23:08.471Z,33.58
2019-05-29T11:24:43.399Z,34.15
2019-05-29T11:26:18.624Z,33.62
2019-05-29T11:27:54.831Z,33.57
2019-05-29T11:29:30.209Z,35.41
2019-05-29T11:31:06.533Z,35.74
2019-05-29T11:32:41.990Z,34.94
2019-05-29T11:34:16.642Z,35.62
2019-05-29T11:36:03.312Z,34.60
2019-05-29T11:37:28.293Z,35.10
2019-05-29T11:39:06.272Z,36.34
2019-05-29T11:40:41.423Z,36.01
2019-05-29T11:42:26.862Z,35.63
2019-05-29T11:43:54.521Z,36.50
2019-05-29T11:45:30.644Z,36.04
2019-05-29T11:47:05.663Z,36.01
2019-05-29T11:48:40.901Z,35.47
2019-05-29T11:50:19.515Z,35.18
2019-05-29T11:51:53.819Z,36.24
2019-05-29T11:53:29.249Z,35.63
2019-05-29T11:55:08.083Z,35.28
2019-05-29T11:56:41.083Z,35.36
2019-05-29T11:58:30.664Z,35.26
2019-05-29T11:59:53.832Z,35.18
2019-05-29T12:01:29.184Z,34.57
2019-05-29T12:03:04.167Z,34.25
2019-05-29T12:04:39.495Z,35.28
2019-05-29T12:06:14.383Z,34.98
2019-05-29T12:07:51.229Z,34.49
2019-05-29T12:09:32.684Z,36.31
2019-05-29T12:11:03.160Z,35.16
2019-05-29T12:12:37.956Z,36.31
2019-05-29T12:14:13.298Z,36.01
2019-05-29T12:15:47.963Z,36.57
2019-05-29T12:17:23.192Z,36.67
2019-05-29T12:18:57.900Z,36.16
2019-05-29T12:20:33.146Z,35.83
2019-05-29T12:22:07.964Z,35.63
2019-05-29T12:23:43.203Z,35.67
2019-05-29T12:25:18.253Z,35.71
2019-05-29T12:26:54.486Z,35.56
2019-05-29T12:28:29.513Z,35.09
2019-05-29T12:30:05.772Z,33.69
2019-05-29T12:31:40.409Z,34.91
2019-05-29T12:33:15.626Z,34.89
2019-05-29T12:34:53.456Z,36.08
2019-05-29T12:36:27.281Z,36.96
2019-05-29T12:38:01.925Z,35.64
2019-05-29T12:39:38.332Z,36.37
2019-05-29T12:41:13.111Z,37.16
2019-05-29T12:42:48.501Z,36.65
2019-05-29T12:44:23.182Z,36.47
2019-05-29T12:46:00.093Z,37.09
2019-05-29T12:47:35.725Z,37.29
2019-05-29T12:49:10.970Z,37.74
2019-05-29T12:50:45.716Z,39.02
2019-05-29T12:52:21.015Z,38.12
2019-05-29T12:53:55.914Z,38.83
2019-05-29T12:55:31.207Z,38.69
2019-05-29T12:57:05.942Z,39.04
2019-05-29T12:58:41.199Z,38.85
2019-05-29T13:00:16.418Z,37.67
2019-05-29T13:01:51.687Z,37.67
2019-05-29T13:03:26.355Z,37.63
2019-05-29T13:05:08.410Z,37.70
2019-05-29T13:06:37.995Z,37.12
2019-05-29T13:08:13.260Z,36.48
2019-05-29T13:09:47.923Z,36.41
2019-05-29T13:11:23.136Z,35.47
2019-05-29T13:13:06.972Z,34.91
2019-05-29T13:14:37.598Z,35.05
2019-05-29T13:16:12.642Z,35.49
2019-05-29T13:17:47.882Z,36.22
2019-05-29T13:19:22.546Z,35.83
2019-05-29T13:21:00.978Z,36.13
2019-05-29T13:22:35.788Z,35.97
2019-05-29T13:24:11.785Z,35.95
2019-05-29T13:25:46.541Z,35.72
2019-05-29T13:27:21.796Z,36.56
2019-05-29T13:28:57.545Z,36.76
2019-05-29T13:30:32.897Z,37.50
2019-05-29T13:32:07.748Z,36.19
2019-05-29T13:33:42.955Z,35.83
2019-05-29T13:35:21.979Z,35.51
2019-05-29T13:36:59.865Z,36.24
2019-05-29T13:38:31.351Z,36.22
2019-05-29T13:40:08.400Z,36.05
2019-05-29T13:41:43.301Z,36.31
2019-05-29T13:43:18.527Z,37.03
2019-05-29T13:44:53.877Z,36.34
2019-05-29T13:46:29.297Z,36.88
2019-05-29T13:48:05.460Z,36.17
2019-05-29T13:49:40.797Z,35.80
2019-05-29T13:51:17.628Z,37.54
2019-05-29T13:53:08.071Z,38.09
2019-05-29T13:54:42.627Z,37.46
2019-05-29T13:56:17.861Z,37.09
2019-05-29T13:57:52.515Z,38.00
2019-05-29T13:59:27.721Z,37.03
2019-05-29T14:01:02.564Z,37.33
2019-05-29T14:02:37.952Z,37.69
2019-05-29T14:04:12.606Z,36.49
2019-05-29T14:05:47.850Z,36.75
2019-05-29T14:07:22.499Z,36.67
2019-05-29T14:08:59.032Z,38.41
2019-05-29T14:10:33.914Z,39.25
2019-05-29T14:12:09.550Z,39.44
2019-05-29T14:13:44.355Z,38.50
2019-05-29T14:15:20.700Z,37.66
2019-05-29T14:16:55.371Z,37.93
2019-05-29T14:18:30.687Z,37.91
2019-05-29T14:20:06.809Z,38.28
2019-05-29T14:21:41.996Z,37.99
2019-05-29T14:23:16.686Z,37.62
2019-05-29T14:24:51.887Z,36.61
2019-05-29T14:26:26.516Z,37.48
2019-05-29T14:28:02.605Z,38.00
2019-05-29T14:29:38.371Z,37.50
2019-05-29T14:31:13.783Z,38.05
2019-05-29T14:32:48.538Z,37.70
2019-05-29T14:34:23.846Z,37.25
2019-05-29T14:35:58.557Z,37.18
2019-05-29T14:37:33.849Z,38.00
2019-05-29T14:39:10.004Z,38.18
2019-05-29T14:40:45.375Z,38.52
2019-05-29T14:42:20.027Z,39.16
2019-05-29T14:43:55.292Z,39.94
2019-05-29T14:45:30.063Z,40.55
2019-05-29T14:47:05.921Z,40.06
2019-05-29T14:48:40.625Z,39.41
2019-05-29T14:50:16.706Z,39.14
2019-05-29T14:51:51.358Z,38.91
2019-05-29T14:53:26.627Z,38.41
2019-05-29T14:55:02.673Z,38.76
2019-05-29T14:56:38.252Z,38.49
2019-05-29T14:58:14.041Z,39.50
2019-05-29T14:59:50.760Z,39.58
2019-05-29T15:01:25.421Z,39.30
2019-05-29T15:03:00.660Z,38.63
2019-05-29T15:04:35.653Z,38.33
2019-05-29T15:06:11.731Z,38.37
2019-05-29T15:07:46.519Z,39.18
2019-05-29T15:09:22.940Z,38.54
2019-05-29T15:10:57.605Z,38.30
2019-05-29T15:12:32.833Z,38.12
2019-05-29T15:14:08.101Z,37.58
2019-05-29T15:15:43.340Z,37.46
2019-05-29T15:17:18.018Z,36.96
2019-05-29T15:18:53.226Z,36.19
2019-05-29T15:20:27.865Z,36.14
2019-05-29T15:22:03.174Z,37.89
2019-05-29T15:23:37.892Z,39.29
2019-05-29T15:25:21.067Z,38.03
2019-05-29T15:26:49.538Z,37.74
2019-05-29T15:28:24.765Z,37.33
2019-05-29T15:30:01.094Z,37.45
2019-05-29T15:31:37.434Z,36.85
2019-05-29T15:33:12.682Z,36.01
2019-05-29T15:34:48.023Z,36.83
2019-05-29T15:36:22.746Z,36.18
2019-05-29T15:37:57.942Z,35.53
2019-05-29T15:39:32.645Z,35.72
2019-05-29T15:41:08.690Z,35.42
2019-05-29T15:42:43.380Z,36.04
2019-05-29T15:44:18.619Z,36.27
2019-05-29T15:45:53.276Z,35.77
2019-05-29T15:47:28.812Z,35.49
2019-05-29T15:49:04.938Z,34.71
2019-05-29T15:50:40.093Z,35.08
2019-05-29T15:52:15.238Z,35.35
2019-05-29T15:53:50.558Z,35.86
2019-05-29T15:55:33.615Z,35.27
2019-05-29T15:57:02.191Z,34.21
2019-05-29T15:58:36.819Z,33.19
2019-05-29T16:00:13.910Z,33.13
2019-05-29T16:01:49.018Z,33.26
2019-05-29T16:03:24.272Z,33.76
2019-05-29T16:04:58.953Z,34.58
2019-05-29T16:06:34.211Z,33.76
2019-05-29T16:08:09.917Z,34.19
2019-05-29T16:09:45.219Z,34.57
2019-05-29T16:11:19.885Z,35.58
2019-05-29T16:12:56.182Z,36.14
2019-05-29T16:14:30.840Z,35.71
2019-05-29T16:16:06.259Z,35.42
2019-05-29T16:17:40.988Z,35.09
2019-05-29T16:19:16.334Z,35.35
2019-05-29T16:20:51.050Z,34.61
2019-05-29T16:22:26.272Z,34.76
2019-05-29T16:24:00.996Z,36.08
2019-05-29T16:25:40.518Z,35.08
2019-05-29T16:27:13.974Z,35.05
2019-05-29T16:28:49.418Z,36.40
2019-05-29T16:30:24.202Z,36.48
2019-05-29T16:31:59.523Z,37.12
2019-05-29T16:33:34.267Z,37.49
2019-05-29T16:35:10.943Z,37.73
2019-05-29T16:36:45.758Z,37.63
2019-05-29T16:38:21.880Z,37.10
2019-05-29T16:39:57.006Z,36.71
2019-05-29T16:41:32.235Z,37.48
2019-05-29T16:43:06.982Z,37.68
2019-05-29T16:44:42.210Z,37.09
2019-05-29T16:46:20.170Z,37.26
2019-05-29T16:47:53.822Z,37.58
2019-05-29T16:49:28.495Z,37.89
2019-05-29T16:51:03.723Z,38.27
2019-05-29T16:52:38.402Z,38.18
2019-05-29T16:54:14.922Z,37.44
2019-05-29T16:55:54.625Z,37.65
2019-05-29T16:57:30.025Z,37.70
2019-05-29T16:59:04.725Z,37.78
2019-05-29T17:00:40.049Z,37.79
2019-05-29T17:02:15.642Z,37.70
2019-05-29T17:03:51.047Z,37.44
2019-05-29T17:05:25.820Z,37.40
2019-05-29T17:07:01.059Z,37.48
2019-05-29T17:08:35.769Z,37.25
2019-05-29T17:10:11.342Z,37.85
2019-05-29T17:11:46.057Z,37.70
2019-05-29T17:13:24.802Z,37.29
2019-05-29T17:14:59.767Z,36.80
2019-05-29T17:16:35.022Z,37.61
2019-05-29T17:18:09.742Z,38.25
2019-05-29T17:19:44.954Z,38.97
2019-05-29T17:21:20.740Z,39.26
2019-05-29T17:22:56.074Z,39.52
2019-05-29T17:24:30.762Z,39.40
2019-05-29T17:26:10.526Z,40.25
2019-05-29T17:27:42.407Z,38.46
2019-05-29T17:29:18.853Z,38.06
2019-05-29T17:30:53.796Z,38.09
2019-05-29T17:32:29.241Z,38.44
2019-05-29T17:34:03.950Z,38.86
2019-05-29T17:35:39.276Z,38.32
2019-05-29T17:37:15.147Z,38.14
2019-05-29T17:38:50.632Z,38.49
2019-05-29T17:40:25.585Z,38.86
2019-05-29T17:42:00.926Z,39.34
2019-05-29T17:43:35.555Z,39.29
2019-05-29T17:45:13.562Z,39.79
2019-05-29T17:46:49.008Z,39.95
2019-05-29T17:48:24.322Z,40.68
2019-05-29T17:49:58.963Z,39.09
2019-05-29T17:51:34.216Z,39.04
2019-05-29T17:53:08.850Z,39.46
2019-05-29T17:54:44.083Z,39.31
2019-05-29T17:56:29.702Z,39.47
2019-05-29T17:57:55.798Z,39.35
2019-05-29T17:59:30.450Z,39.43
2019-05-29T18:01:06.844Z,39.38
2019-05-29T18:02:51.522Z,40.33
2019-05-29T18:04:18.599Z,41.11
2019-05-29T18:05:53.304Z,41.55
2019-05-29T18:07:28.617Z,42.47
2019-05-29T18:09:04.240Z,42.78
2019-05-29T18:10:39.867Z,42.95
2019-05-29T18:12:14.709Z,43.04
2019-05-29T18:13:50.092Z,43.44
2019-05-29T18:15:25.721Z,43.40
2019-05-29T18:17:01.273Z,43.52
2019-05-29T18:18:35.984Z,43.81
2019-05-29T18:20:14.639Z,43.74
2019-05-29T18:21:48.713Z,44.46
2019-05-29T18:23:24.255Z,44.50
2019-05-29T18:24:58.926Z,44.35
2019-05-29T18:26:45.926Z,44.91
2019-05-29T18:28:10.520Z,44.91
2019-05-29T18:29:45.779Z,44.89
2019-05-29T18:31:20.498Z,45.11
2019-05-29T18:32:56.839Z,45.04
2019-05-29T18:34:31.498Z,44.98
2019-05-29T18:36:06.755Z,45.04
2019-05-29T18:37:41.430Z,45.31
2019-05-29T18:39:16.628Z,45.56
2019-05-29T18:40:51.359Z,45.86
2019-05-29T18:42:27.328Z,45.96
2019-05-29T18:44:02.442Z,46.18
2019-05-29T18:45:37.689Z,46.50
2019-05-29T18:47:12.474Z,46.46
2019-05-29T18:48:47.716Z,46.58
2019-05-29T18:50:23.458Z,46.62
2019-05-29T18:52:00.488Z,46.80
2019-05-29T18:53:35.366Z,47.15
2019-05-29T18:55:11.104Z,47.15
2019-05-29T18:57:13.301Z,47.55
2019-05-29T18:58:24.055Z,48.25
2019-05-29T18:59:58.864Z,48.25
2019-05-29T19:01:34.209Z,48.85
2019-05-29T19:03:08.848Z,48.49
2019-05-29T19:04:44.130Z,48.56
2019-05-29T19:06:18.759Z,48.04
2019-05-29T19:07:53.993Z,48.01
2019-05-29T19:09:29.758Z,48.52
2019-05-29T19:11:05.555Z,48.36
2019-05-29T19:12:40.398Z,48.19
2019-05-29T19:14:15.690Z,48.19
2019-05-29T19:15:50.354Z,48.21
2019-05-29T19:17:26.029Z,48.62
2019-05-29T19:19:00.701Z,48.62
2019-05-29T19:20:36.003Z,48.09
2019-05-29T19:22:10.710Z,48.42
2019-05-29T19:23:45.971Z,47.96
2019-05-29T19:25:20.827Z,48.42
2019-05-29T19:26:56.052Z,48.68
2019-05-29T19:28:30.761Z,48.90
2019-05-29T19:30:06.737Z,48.49
2019-05-29T19:31:42.688Z,48.93
2019-05-29T19:33:18.036Z,49.02
2019-05-29T19:34:52.705Z,50.44
2019-05-29T19:36:27.969Z,49.88
2019-05-29T19:38:02.819Z,52.09
2019-05-29T19:39:38.211Z,50.43
2019-05-29T19:41:12.869Z,52.44
2019-05-29T19:42:48.099Z,52.68
2019-05-29T19:44:24.084Z,49.64
2019-05-29T19:45:59.469Z,49.49
2019-05-29T19:47:34.939Z,50.45
2019-05-29T19:49:10.281Z,50.30
2019-05-29T19:50:44.941Z,49.51
2019-05-29T19:52:20.270Z,50.07
2019-05-29T19:53:55.005Z,49.52
2019-05-29T19:55:34.842Z,49.70
2019-05-29T19:57:06.894Z,49.75
2019-05-29T19:58:42.463Z,49.77
2019-05-29T20:00:17.173Z,49.64
2019-05-29T20:01:52.461Z,49.64
2019-05-29T20:03:28.263Z,50.38
2019-05-29T20:05:03.677Z,50.38
2019-05-29T20:06:38.492Z,51.00
2019-05-29T20:08:13.731Z,50.58
2019-05-29T20:09:48.382Z,50.60
2019-05-29T20:11:23.643Z,50.37
2019-05-29T20:12:58.386Z,50.54
2019-05-29T20:14:33.845Z,50.50
2019-05-29T20:16:08.693Z,50.02
2019-05-29T20:17:43.923Z,49.96
2019-05-29T20:19:18.632Z,49.79
2019-05-29T20:20:53.878Z,49.92
2019-05-29T20:22:28.628Z,50.11
2019-05-29T20:24:03.850Z,50.34
2019-05-29T20:25:39.079Z,50.75
2019-05-29T20:27:14.445Z,50.17
2019-05-29T20:28:49.074Z,50.44